• Join FlightAware (Why Join?)
  • Login
  • US Flag 
11:54AM EDT


 

Airport Tracker/Info


-or-


 

Live Flight TrackerFlight Track Log ✈ SWA642 ✈ 07-Apr-2013 ✈ KBWI - KPHX

Flight Track Log - Related Links

Times and Time Zones

All times are in EDT time to prevent confusion due to time zone crossing. See the SWA642 flight status page for this flight to view local times or setup timezone preferences in your user account.

Time Position Orientation Groundspeed Altitude Reporting Facility
EDT Latitude Longitude Course Direction KTS MPH feet Rate Location/Type
09:06PM 39.1667 -76.7833 284° West 246 283 8,600  Level Potomac TRACON
09:07PM 39.2000 -76.8667 297° West 257 296 12,800 3,420 Climbing Potomac TRACON
09:08PM 39.2167 -76.9500 284° West 280 322 15,500 2,340 Climbing Potomac TRACON
09:10PM 39.0199 -77.2968 218° Southwest  Level FlightAware Approximate
09:10PM 39.1886 -77.1742 261° West 321 369 19,600  Level Washington Center
09:11PM 38.9819 -77.4085 258° West  Level FlightAware Approximate
09:11PM 39.1206 -77.2664 226° Southwest 327 376 22,100  Level Washington Center
09:12PM 39.0856 -77.3914 250° West 355 409 23,000 1,500 Climbing Washington Center
09:13PM 39.0500 -77.5186 250° West 375 432 25,200 2,100 Climbing Washington Center
09:14PM 39.0061 -77.6644 249° West 394 453 27,200 1,620 Climbing Washington Center
09:15PM 38.9769 -77.7731 251° West 404 465 28,500 1,800 Climbing Washington Center
09:16PM 38.9325 -77.9239 249° West 410 472 30,900 2,280 Climbing Washington Center
09:17PM 38.8944 -78.0586 250° West 410 472 33,100 2,100 Climbing Washington Center
09:18PM 38.8583 -78.1881 250° West 399 459 35,100 1,740 Climbing Washington Center
09:19PM 38.8492 -78.3239 265° West 387 445 36,600 1,320 Climbing Washington Center
09:20PM 38.8481 -78.4544 269° West 374 430 37,800 660 Climbing Washington Center
09:21PM 38.8469 -78.5903 269° West 379 436 38,000 60 Climbing Washington Center
09:22PM 38.8456 -78.7236 269° West 379 436 38,000  Level Washington Center
09:23PM 38.8442 -78.8567 269° West 379 436 38,000  Level Washington Center
09:24PM 38.8403 -78.9925 268° West 379 436 38,000  Level Washington Center
09:25PM 38.8386 -79.1231 269° West 379 436 38,000  Level Washington Center
09:26PM 38.8286 -79.2531 264° West 379 436 38,000  Level Washington Center
09:27PM 38.8036 -79.3825 256° West 379 436 38,000  Level Washington Center
09:28PM 38.7822 -79.5253 259° West 379 436 38,000  Level Washington Center
09:29PM 38.7633 -79.6572 260° West 379 436 38,000  Level Washington Center
09:30PM 38.7381 -79.7864 256° West 379 436 38,000  Level Washington Center
09:31PM 38.7072 -79.8936 250° West 362 417 38,000  Level Washington Center
09:32PM 38.6917 -80.0364 262° West 367 422 38,000  Level Washington Center
09:33PM 38.6711 -80.1389 256° West 372 428 38,000  Level Washington Center
09:34PM 38.6472 -80.2528 255° West 377 434 38,000  Level Indianapolis Center
09:35PM 38.6217 -80.3839 256° West 379 436 38,000  Level Indianapolis Center
09:36PM 38.5967 -80.5156 256° West 380 437 38,000  Level Indianapolis Center
09:37PM 38.5719 -80.6467 256° West 380 437 38,000  Level Indianapolis Center
09:38PM 38.5472 -80.7775 256° West 378 435 38,000  Level Indianapolis Center
09:39PM 38.5211 -80.9086 256° West 380 437 38,000  Level Indianapolis Center
09:40PM 38.4961 -81.0369 256° West 374 430 38,000  Level Indianapolis Center
09:41PM 38.4706 -81.1653 256° West 373 429 38,000  Level Indianapolis Center
09:42PM 38.4444 -81.2950 256° West 373 429 38,000  Level Indianapolis Center
09:43PM 38.4144 -81.4531 256° West 378 435 38,000  Level Indianapolis Center
09:44PM 38.3881 -81.5839 256° West 376 433 38,000  Level Indianapolis Center
09:45PM 38.3603 -81.7150 255° West 376 433 38,000  Level Indianapolis Center
09:46PM 38.3308 -81.8425 254° West 378 435 38,000  Level Indianapolis Center
09:47PM 38.2933 -81.9697 249° West 381 438 38,000  Level Indianapolis Center
09:48PM 38.2581 -82.0958 250° West 379 436 38,000  Level Indianapolis Center
09:49PM 38.2225 -82.2233 250° West 381 438 38,000  Level Indianapolis Center
09:50PM 38.1864 -82.3506 250° West 381 438 38,000  Level Indianapolis Center
09:51PM 38.1500 -82.4772 250° West 381 438 38,000  Level Indianapolis Center
09:52PM 38.1106 -82.6161 250° West 381 438 38,000  Level Indianapolis Center
09:53PM 38.0739 -82.7417 250° West 381 438 38,000  Level Indianapolis Center
09:54PM 38.0369 -82.8681 250° West 381 438 38,000  Level Indianapolis Center
09:55PM 38.0003 -82.9950 250° West 383 441 38,000  Level Indianapolis Center
09:56PM 37.9625 -83.1233 250° West 388 447 38,000  Level Indianapolis Center
09:57PM 37.9258 -83.2506 250° West 387 445 38,000  Level Indianapolis Center
09:59PM 37.8867 -83.3786 249° West 390 449 38,000  Level Indianapolis Center
10:00PM 37.8433 -83.5297 250° West 392 451 38,000  Level Indianapolis Center
10:01PM 37.8047 -83.6586 249° West 392 451 38,000  Level Indianapolis Center
10:02PM 37.7656 -83.7864 249° West 391 450 38,000  Level Indianapolis Center
10:03PM 37.7267 -83.9136 249° West 390 449 38,000  Level Indianapolis Center
10:04PM 37.6892 -84.0406 250° West 388 447 38,000  Level Indianapolis Center
10:05PM 37.6514 -84.1658 249° West 383 441 38,000  Level Indianapolis Center
10:06PM 37.6133 -84.2914 249° West 383 441 38,000  Level Indianapolis Center
10:07PM 37.5731 -84.4192 248° West 390 449 38,000  Level Indianapolis Center
10:08PM 37.5333 -84.5453 248° West 388 447 38,000  Level Indianapolis Center
10:09PM 37.4947 -84.6719 249° West 391 450 38,000  Level Indianapolis Center
10:10PM 37.4553 -84.7981 249° West 387 445 38,000  Level Indianapolis Center
10:11PM 37.4103 -84.9453 249° West 386 444 38,000  Level Indianapolis Center
10:12PM 37.3706 -85.0714 248° West 387 445 38,000  Level Indianapolis Center
10:13PM 37.3311 -85.1958 248° West 385 443 38,000  Level Indianapolis Center
10:14PM 37.2919 -85.3203 248° West 385 443 38,000  Level Indianapolis Center
10:15PM 37.2519 -85.4469 248° West 387 445 38,100 600 Climbing Indianapolis Center
10:16PM 37.2108 -85.5761 248° West 389 448 39,300 900 Climbing Indianapolis Center
10:17PM 37.1703 -85.7008 248° West 385 443 40,000 300 Climbing Indianapolis Center
10:18PM 37.1303 -85.8258 248° West 384 442 40,000  Level Indianapolis Center
10:19PM 37.0903 -85.9517 248° West 386 444 40,000  Level Indianapolis Center
10:20PM 37.0403 -86.1078 248° West 382 440 40,000  Level Memphis Center
10:21PM 36.9989 -86.2347 248° West 382 440 40,000  Level Memphis Center
10:22PM 36.9550 -86.3617 247° West 387 445 40,000  Level Memphis Center
10:23PM 36.9214 -86.4878 252° West 393 452 40,000  Level Memphis Center
10:24PM 36.9006 -86.6186 259° West 381 438 40,000  Level Memphis Center
10:25PM 36.8794 -86.7492 259° West 381 438 40,000  Level Memphis Center
10:26PM 36.8581 -86.8822 259° West 386 444 40,000  Level Memphis Center
10:27PM 36.8367 -87.0128 258° West 386 444 40,000  Level Memphis Center
10:28PM 36.8153 -87.1458 259° West 392 451 40,000  Level Memphis Center
10:29PM 36.7936 -87.2789 259° West 392 451 40,000  Level Memphis Center
10:30PM 36.7697 -87.4094 257° West 392 451 40,000  Level Memphis Center
10:31PM 36.7456 -87.5397 257° West 392 451 40,000  Level Memphis Center
10:32PM 36.7236 -87.6725 258° West 392 451 40,000  Level Memphis Center
10:33PM 36.6992 -87.8028 257° West 392 451 40,000  Level Memphis Center
10:34PM 36.6786 -87.9225 258° West 392 451 40,000  Level Memphis Center
10:35PM 36.6708 -88.0519 266° West 392 451 40,000  Level Memphis Center
10:36PM 36.6775 -88.1942 273° West 381 438 40,000  Level Memphis Center
10:37PM 36.6775 -88.3261 270° West 381 438 40,000  Level Memphis Center
10:38PM 36.6775 -88.4581 270° West 381 438 40,000  Level Memphis Center
10:39PM 36.6775 -88.5900 270° West 381 438 40,000  Level Memphis Center
10:40PM 36.6794 -88.7244 271° West 381 438 40,000  Level Memphis Center
10:41PM 36.6811 -88.8614 271° West 381 438 40,000  Level Memphis Center
10:42PM 36.6806 -88.9933 270° West 387 445 40,000  Level Memphis Center
10:43PM 36.6797 -89.1253 270° West 387 445 40,000  Level Memphis Center
10:44PM 36.6811 -89.2600 271° West 387 445 40,000  Level Memphis Center
10:45PM 36.6803 -89.3969 270° West 387 445 40,000  Level Memphis Center
10:46PM 36.6792 -89.5317 269° West 387 445 40,000  Level Memphis Center
10:47PM 36.6756 -89.6636 268° West 387 445 40,000  Level Memphis Center
10:48PM 36.6742 -89.7981 269° West 387 445 40,000  Level Memphis Center
10:49PM 36.6728 -89.9300 269° West 387 445 40,000  Level Memphis Center
10:50PM 36.6711 -90.0619 269° West 387 445 40,000  Level Memphis Center
10:51PM 36.6692 -90.1939 269° West 387 445 40,000  Level Memphis Center
10:52PM 36.6694 -90.3258 270° West 387 445 40,000  Level Memphis Center
10:53PM 36.6672 -90.4578 269° West 387 445 40,000  Level Memphis Center
10:54PM 36.6650 -90.5897 269° West 387 445 40,000  Level Memphis Center
10:55PM 36.6647 -90.7217 270° West 387 445 40,000  Level Memphis Center
10:56PM 36.6622 -90.8536 269° West 387 445 40,000  Level Memphis Center
10:57PM 36.6594 -90.9856 269° West 387 445 40,000  Level Memphis Center
10:58PM 36.6567 -91.1172 269° West 387 445 40,000  Level Memphis Center
10:59PM 36.6536 -91.2492 268° West 382 440 40,000  Level Memphis Center
11:00PM 36.6528 -91.3786 270° West 382 440 40,000  Level Memphis Center
11:01PM 36.6494 -91.5025 268° West 376 433 40,000  Level Memphis Center
11:02PM 36.6483 -91.6294 269° West 376 433 40,000  Level Memphis Center
11:03PM 36.6447 -91.7611 268° West 371 427 40,000  Level Memphis Center
11:04PM 36.6433 -91.8906 269° West 371 427 40,000  Level Memphis Center
11:05PM 36.6397 -92.0169 268° West 371 427 40,000  Level Memphis Center
11:06PM 36.6336 -92.1461 267° West 376 433 40,000  Level Memphis Center
11:07PM 36.6317 -92.2806 269° West 382 440 40,000  Level Memphis Center
11:08PM 36.6278 -92.3994 268° West 382 440 40,000  Level Memphis Center
11:09PM 36.6233 -92.5314 268° West 382 440 40,000  Level Memphis Center
11:10PM 36.6208 -92.6656 269° West 387 445 40,000  Level Memphis Center
11:13PM 36.6106 -92.9869 268° West 393 452 40,000  Level Kansas City Center
11:14PM 36.6067 -93.1303 268° West 397 457 40,000  Level Kansas City Center
11:15PM 36.6022 -93.2653 268° West 395 455 40,000  Level Kansas City Center
11:16PM 36.5967 -93.4011 267° West 394 453 40,000  Level Kansas City Center
11:17PM 36.5931 -93.5361 268° West 394 453 40,000  Level Kansas City Center
11:18PM 36.5864 -93.6986 267° West 394 453 40,000  Level Kansas City Center
11:19PM 36.5814 -93.8283 267° West 395 455 40,000  Level Kansas City Center
11:20PM 36.5744 -93.9628 266° West 391 450 40,000  Level Kansas City Center
11:21PM 36.5697 -94.0981 268° West 391 450 40,000  Level Kansas City Center
11:22PM 36.5647 -94.2322 267° West 389 448 40,000  Level Kansas City Center
11:23PM 36.5578 -94.3658 266° West 387 445 40,000  Level Kansas City Center
11:24PM 36.5531 -94.4975 267° West 384 442 40,000  Level Kansas City Center
11:25PM 36.5461 -94.6283 266° West 380 437 40,000  Level Kansas City Center
11:26PM 36.5392 -94.7606 266° West 381 438 40,000  Level Kansas City Center
11:27PM 36.5331 -94.8894 267° West 377 434 40,000  Level Kansas City Center
11:28PM 36.5264 -95.0183 266° West 375 432 40,000  Level Kansas City Center
11:29PM 36.5200 -95.1567 267° West 370 426 40,000  Level Kansas City Center
11:30PM 36.5133 -95.2861 266° West 374 430 40,000  Level Kansas City Center
11:31PM 36.5064 -95.4158 266° West 376 433 40,000  Level Kansas City Center
11:32PM 36.4983 -95.5456 266° West 377 434 40,000  Level Kansas City Center
11:33PM 36.4931 -95.6769 267° West 379 436 40,000  Level Kansas City Center
11:34PM 36.4850 -95.8103 266° West 372 428 40,000  Level Kansas City Center
11:35PM 36.4775 -95.9386 266° West 372 428 40,000  Level Kansas City Center
11:36PM 36.4703 -96.0664 266° West 372 428 40,000  Level Kansas City Center
11:37PM 36.4631 -96.1956 266° West 373 429 40,000  Level Kansas City Center
11:38PM 36.4553 -96.3244 266° West 375 432 40,000  Level Kansas City Center
11:39PM 36.4469 -96.4556 266° West 379 436 40,000  Level Kansas City Center
11:40PM 36.4383 -96.5864 265° West 380 437 40,000  Level Kansas City Center
11:41PM 36.4300 -96.7161 265° West 378 435 40,000  Level Kansas City Center
11:42PM 36.4214 -96.8608 266° West 377 434 40,000  Level Kansas City Center
11:43PM 36.4131 -96.9892 265° West 376 433 40,000  Level Kansas City Center
11:44PM 36.4042 -97.1178 265° West 376 433 40,000  Level Kansas City Center
11:45PM 36.3947 -97.2464 265° West 376 433 40,000  Level Kansas City Center
11:46PM 36.3864 -97.3744 265° West 375 432 40,000  Level Kansas City Center
11:47PM 36.3772 -97.5050 265° West 379 436 40,000  Level Kansas City Center
11:48PM 36.3681 -97.6314 265° West 376 433 40,000  Level Kansas City Center
11:49PM 36.3589 -97.7611 265° West 374 430 40,000  Level Kansas City Center
11:50PM 36.3497 -97.8903 265° West 375 432 40,000  Level Kansas City Center
11:51PM 36.3389 -98.0189 264° West 374 430 40,000  Level Kansas City Center
11:52PM 36.3300 -98.1478 265° West 375 432 40,000  Level Kansas City Center
11:53PM 36.3200 -98.2753 264° West 373 429 40,000  Level Kansas City Center
11:54PM 36.3075 -98.4269 264° West 369 425 40,000  Level Kansas City Center
11:55PM 36.2981 -98.5531 265° West 367 422 40,000  Level Kansas City Center
11:56PM 36.2875 -98.6803 264° West 371 427 40,000  Level Kansas City Center
11:57PM 36.2764 -98.8067 264° West 370 426 40,000  Level Kansas City Center
11:58PM 36.2661 -98.9336 264° West 372 428 40,000  Level Kansas City Center
11:59PM 36.2558 -99.0603 264° West 372 428 40,000  Level Kansas City Center
12:00AM 36.2453 -99.1828 264° West 374 430 40,000  Level Kansas City Center
12:01AM 36.2347 -99.3097 264° West 373 429 40,000  Level Kansas City Center
12:02AM 36.2231 -99.4383 264° West 370 426 40,000  Level Kansas City Center
12:03AM 36.2128 -99.5642 264° West 369 425 40,000  Level Kansas City Center
12:04AM 36.2014 -99.6900 264° West 370 426 40,000  Level Kansas City Center
12:05AM 36.1894 -99.8178 263° West 372 428 40,000  Level Kansas City Center
12:06AM 36.1772 -99.9453 263° West 374 430 40,000  Level Kansas City Center
12:07AM 36.1656 -100.0739 264° West 375 432 40,000  Level Kansas City Center
12:08AM 36.1528 -100.2025 263° West 376 433 40,000  Level Kansas City Center
12:09AM 36.1408 -100.3311 263° West 377 434 40,000  Level Kansas City Center
12:10AM 36.1281 -100.4597 263° West 376 433 40,000  Level Kansas City Center
12:10AM 36.1242 -100.5114 265° West 376 433 40,000  Level Albuquerque Center
12:11AM 36.1117 -100.6394 263° West 375 432 40,000  Level Albuquerque Center
12:12AM 36.0986 -100.7661 263° West 373 429 40,000  Level Albuquerque Center
12:13AM 36.0872 -100.8922 264° West 370 426 40,000  Level Albuquerque Center
12:14AM 36.0742 -101.0183 263° West 369 425 40,000  Level Albuquerque Center
12:15AM 36.0617 -101.1431 263° West 367 422 40,000  Level Albuquerque Center
12:16AM 36.0489 -101.2692 263° West 367 422 40,000  Level Albuquerque Center
12:17AM 36.0364 -101.3958 263° West 371 427 40,000  Level Albuquerque Center
12:19AM 36.0228 -101.5178 262° West 368 423 40,000  Level Albuquerque Center
12:20AM 36.0094 -101.6417 262° West 366 421 40,000  Level Albuquerque Center
12:21AM 35.9964 -101.7656 263° West 366 421 40,000  Level Albuquerque Center
12:22AM 35.9800 -101.9144 262° West 368 423 40,000  Level Albuquerque Center
12:23AM 35.9672 -102.0392 263° West 369 425 40,000  Level Albuquerque Center
12:24AM 35.9533 -102.1633 262° West 368 423 40,000  Level Albuquerque Center
12:25AM 35.9383 -102.2897 262° West 372 428 40,000  Level Albuquerque Center
12:26AM 35.9253 -102.4133 263° West 369 425 40,000  Level Albuquerque Center
12:27AM 35.9108 -102.5397 262° West 372 428 40,000  Level Albuquerque Center
12:28AM 35.8967 -102.6642 262° West 370 426 40,000  Level Albuquerque Center
12:29AM 35.8803 -102.7881 261° West 368 423 40,000  Level Albuquerque Center
12:30AM 35.8661 -102.9289 263° West 369 425 40,000  Level Albuquerque Center
12:31AM 35.8506 -103.0531 261° West 365 420 40,000  Level Albuquerque Center
12:32AM 35.8358 -103.1786 262° West 367 422 40,000  Level Albuquerque Center
12:33AM 35.8208 -103.3036 262° West 368 423 40,000  Level Albuquerque Center
12:34AM 35.8061 -103.4289 262° West 367 422 40,000  Level Albuquerque Center
12:35AM 35.7908 -103.5528 261° West 366 421 40,000  Level Albuquerque Center
12:36AM 35.7753 -103.6767 261° West 366 421 40,000  Level Albuquerque Center
12:37AM 35.7606 -103.8028 262° West 369 425 40,000  Level Albuquerque Center
12:38AM 35.7436 -103.9267 260° West 367 422 40,000  Level Albuquerque Center
12:39AM 35.7281 -104.0503 261° West 364 419 40,000  Level Albuquerque Center
12:40AM 35.7122 -104.1761 261° West 370 426 40,000  Level Albuquerque Center
12:41AM 35.6961 -104.2992 261° West 365 420 40,000  Level Albuquerque Center
12:42AM 35.6806 -104.4239 261° West 367 422 40,000  Level Albuquerque Center
12:43AM 35.6633 -104.5478 260° West 367 422 40,000  Level Albuquerque Center
12:44AM 35.6469 -104.6719 261° West 366 421 40,000  Level Albuquerque Center
12:45AM 35.6303 -104.7981 261° West 371 427 40,000  Level Albuquerque Center
12:46AM 35.6133 -104.9256 261° West 375 432 40,000  Level Albuquerque Center
12:47AM 35.5950 -105.0544 260° West 379 436 40,000  Level Albuquerque Center
12:48AM 35.5764 -105.1819 260° West 378 435 40,000  Level Albuquerque Center
12:49AM 35.5617 -105.3097 262° West 377 434 40,000  Level Albuquerque Center
12:50AM 35.5406 -105.4608 260° West 380 437 40,000  Level Albuquerque Center
12:51AM 35.5222 -105.5925 260° West 387 445 40,000  Level Albuquerque Center
12:52AM 35.5019 -105.7267 260° West 393 452 40,000  Level Albuquerque Center
12:53AM 35.4844 -105.8583 261° West 390 449 40,000  Level Albuquerque Center
12:54AM 35.4653 -105.9889 260° West 392 451 40,000  Level Albuquerque Center
12:55AM 35.4467 -106.1186 260° West 389 448 40,000  Level Albuquerque Center
12:56AM 35.4292 -106.2486 261° West 388 447 40,000  Level Albuquerque Center
12:57AM 35.4097 -106.3781 260° West 389 448 40,000  Level Albuquerque Center
12:58AM 35.3906 -106.5067 260° West 386 444 40,000  Level Albuquerque Center
12:59AM 35.3731 -106.6275 260° West 380 437 40,000  Level Albuquerque Center
01:00AM 35.3544 -106.7700 261° West 378 435 40,000  Level Albuquerque Center
01:01AM 35.3311 -106.8917 257° West 383 441 40,000  Level Albuquerque Center
01:02AM 35.3131 -107.0136 260° West 381 438 40,000  Level Albuquerque Center
01:03AM 35.2925 -107.1553 260° West 379 436 40,000  Level Albuquerque Center
01:04AM 35.2758 -107.2644 259° West 388 447 40,000  Level Albuquerque Center
01:05AM 35.2561 -107.3906 259° West 383 441 40,000  Level Albuquerque Center
01:06AM 35.2322 -107.5400 259° West 375 432 40,000  Level Albuquerque Center
01:07AM 35.2133 -107.6611 259° West 376 433 40,000  Level Albuquerque Center
01:08AM 35.1947 -107.7817 259° West 375 432 40,000  Level Albuquerque Center
01:09AM 35.1717 -107.9225 259° West 377 434 40,000  Level Albuquerque Center
01:10AM 35.1528 -108.0422 259° West 376 433 40,000  Level Albuquerque Center
01:11AM 35.1336 -108.1611 259° West 374 430 40,000  Level Albuquerque Center
01:12AM 35.1019 -108.3006 255° West 376 433 40,000  Level Albuquerque Center
01:13AM 35.0725 -108.4186 253° West 379 436 40,000  Level Albuquerque Center
01:14AM 35.0433 -108.5364 253° West 379 436 40,000  Level Albuquerque Center
01:15AM 35.0103 -108.6728 254° West 375 432 40,000  Level Albuquerque Center
01:16AM 34.9803 -108.7906 253° West 378 435 40,000  Level Albuquerque Center
01:17AM 34.9514 -108.9089 253° West 379 436 40,000  Level Albuquerque Center
01:18AM 34.9211 -109.0264 253° West 379 436 40,000  Level Albuquerque Center
01:19AM 34.8872 -109.1650 253° West 380 437 40,000  Level Albuquerque Center
01:20AM 34.8572 -109.2836 253° West 381 438 40,000  Level Albuquerque Center
01:21AM 34.8269 -109.4017 253° West 381 438 40,000  Level Albuquerque Center
01:22AM 34.7908 -109.5378 252° West 378 435 40,000  Level Albuquerque Center
01:23AM 34.7608 -109.6544 253° West 377 434 40,000  Level Albuquerque Center
01:24AM 34.7303 -109.7708 252° West 378 435 40,000  Level Albuquerque Center
01:25AM 34.6925 -109.9078 251° West 380 437 40,000  Level Albuquerque Center
01:26AM 34.6494 -110.0147 244° Southwest 373 429 40,000 -60 Level Albuquerque Center
01:27AM 34.6108 -110.1278 247° West 376 433 39,900 -1,380 Descending Albuquerque Center
01:28AM 34.5650 -110.2533 246° West 367 422 37,300 -2,640 Descending Albuquerque Center
01:29AM 34.5208 -110.3539 242° Southwest 355 409 34,600 -2,160 Descending Albuquerque Center
01:30AM 34.4817 -110.4719 248° West 367 422 33,000 -1,680 Descending Albuquerque Center
01:31AM 34.4397 -110.5844 246° West 368 423 31,300 -1,980 Descending Albuquerque Center
01:32AM 34.3961 -110.6928 244° Southwest 361 415 29,100 -2,220 Descending Albuquerque Center
01:33AM 34.3483 -110.8050 243° Southwest 373 429 26,900 -2,340 Descending Albuquerque Center
01:34AM 34.2761 -110.8972 227° Southwest 377 434 24,500 -2,340 Descending Albuquerque Center
01:35AM 34.2047 -110.9886 227° Southwest 373 429 22,300 -2,220 Descending Albuquerque Center
01:37AM 34.1372 -111.0767 227° Southwest 364 419 20,100 -2,280 Descending Albuquerque Center
01:38AM 34.0719 -111.1600 227° Southwest 351 404 17,800 -2,100 Descending Albuquerque Center
01:39AM 34.0097 -111.2392 227° Southwest 333 383 15,900 -1,920 Descending Albuquerque Center
01:40AM 33.9489 -111.3186 227° Southwest 316 364 14,000 -1,740 Descending Albuquerque Center
01:41AM 33.8925 -111.3914 227° Southwest 306 352 12,400 -1,440 Descending Albuquerque Center
01:42AM 33.8319 -111.4489 218° Southwest 279 321 11,100 -900 Descending Albuquerque Center
01:43AM 33.7714 -111.4992 215° Southwest 265 305 10,600 -840 Descending Albuquerque Center
01:44AM 33.7147 -111.5486 216° Southwest 252 290 9,500 -1,080 Descending Albuquerque Center
01:45AM 33.6594 -111.5958 215° Southwest 244 281 8,500 -960 Descending Albuquerque Center
01:46AM 33.6069 -111.6406 215° Southwest 232 267 7,600 -1,140 Descending Albuquerque Center
01:47AM 33.5639 -111.6942 226° Southwest 226 260 6,300 -1,380 Descending Albuquerque Center
01:48AM 33.5242 -111.7547 232° Southwest 229 264 4,900 -1,200 Descending Albuquerque Center
01:49AM 33.4839 -111.8158 232° Southwest 231 266 4,000 -720 Descending Albuquerque Center
01:50AM 33.4506 -111.8675 232° Southwest 197 227 3,500 -840 Descending Albuquerque Center
01:51AM 33.4403 -111.9167 256° West 154 177 2,400 -900 Descending Albuquerque Center
01:52AM 33.4408 -111.9625 271° West 140 161 1,700 -660 Descending Albuquerque Center
01:53AM 33.4397 -112.0094 268° West 134 154 1,100 -600 Descending Albuquerque Center